Accueil
METAR-TAF:

METAR-TAF

Aéroports :

Base aérienne 702 Avord

Avord, France

latitude: 47-03-12N, longitude: 002-37-57E, altitude: 177 m

Observation

Le bulletin a été fait il y a 23 minutes, à 08:00 UTC
Vent 6 kt de est
Température 1°C
Humidité 93%
Pression 1022 hPa
Visibilité: 4900 m
brume

METAR: LFOA 240800Z AUTO 08006KT 4900 BR NSC 01/M00 Q1022 BECMG 8000 NSW

Heure: 09:23 (08:23 UTC)

Prévision

Le bulletin a été fait il y a 3 heures et 3 minutes, à 05:20 UTC
Prévision valable du 24 à 05 UTC au 25 à 03 UTC
Vent 5 kt de est
Visibilité: 8000 m
Probabilité 30% :
Temporairement
du 24 à 05 UTC au 24 à 09 UTC
Visibilité: 4000 m
brume
Evoluant progressivement
du 24 à 19 UTC au 24 à 21 UTC
Visibilité: 3000 m
brume
Temporairement
du 24 à 21 UTC au 25 à 03 UTC
Visibilité: 0800 m
brouillard

TAF: LFOA 240520Z 2405/2503 08005KT 8000 NSC PROB30 TEMPO 2405/2409 4000 BR BECMG 2419/2421 3000 BR TEMPO 2421/2503 0800 FG VV///

Observations et prévisions météorologiques de plus de 4000 aéroports (messages METAR et TAF).

Les stations disponibles sont représentées par des disques jaunes et rouges sur la carte.

Passer la souris dessus pour voir le nom de la station.

Cliquer dessus pour voir les observations et prévisions météorologiques.

Pour changer de carte: cliquez sur les boutons verts avec une croix noire pour zoomer, sur le bouton vert avec un tiret pour effectuer un zoom arrière, ou sur les flèches vertes pour les cartes adjacentes.


METAR-TAF: